Time;durP1;ratioP1;P1;durP2;ratioP2;P2;SDS_P1;SDS_P2;PMS_P1;PMS_P2;Temp;Humidity;BMP_temperature;BMP_pressure;BME280_temperature;BME280_humidity;BME280_pressure;Samples;Min_cycle;Max_cycle;Signal;HPM_P1;HPM_P2
2022/07/08 00:01:38;;;;;;;1.25;0.47;;;24.70;41.20;;;;;;5013093;28;20030;-50
2022/07/08 00:04:03;;;;;;;1.77;0.68;;;24.80;41.20;;;;;;5012848;28;20092;-50
2022/07/08 00:06:29;;;;;;;1.00;0.50;;;24.80;41.20;;;;;;5013545;28;20030;-48
2022/07/08 00:08:56;;;;;;;0.70;0.40;;;24.80;41.20;;;;;;5013105;28;20376;-51
2022/07/08 00:11:22;;;;;;;0.98;0.30;;;24.70;41.20;;;;;;5013217;28;20025;-49
2022/07/08 00:13:48;;;;;;;1.63;0.40;;;24.80;41.20;;;;;;5013697;28;20360;-47
2022/07/08 00:16:14;;;;;;;1.00;0.40;;;24.80;41.20;;;;;;5013663;28;20033;-51
2022/07/08 00:18:40;;;;;;;0.77;0.40;;;24.70;41.20;;;;;;5012499;28;20025;-51
2022/07/08 00:21:06;;;;;;;1.35;0.50;;;24.70;41.20;;;;;;5010077;28;20021;-52
2022/07/08 00:23:32;;;;;;;1.33;0.40;;;24.70;41.20;;;;;;5013220;28;20124;-52
2022/07/08 00:25:58;;;;;;;1.25;0.40;;;24.70;41.20;;;;;;5013275;28;20057;-49
2022/07/08 00:28:24;;;;;;;1.48;0.40;;;24.70;41.30;;;;;;5013320;28;20452;-48
2022/07/08 00:30:50;;;;;;;1.13;0.47;;;24.70;41.30;;;;;;5012117;28;20033;-49
2022/07/08 00:33:15;;;;;;;0.57;0.30;;;24.70;41.30;;;;;;5013029;28;20034;-47
2022/07/08 00:35:41;;;;;;;0.93;0.47;;;24.70;41.30;;;;;;5012722;28;20046;-46
2022/07/08 00:38:07;;;;;;;1.02;0.50;;;24.70;41.30;;;;;;5012730;28;20022;-47
2022/07/08 00:40:34;;;;;;;1.05;0.45;;;24.70;41.30;;;;;;5013156;28;20042;-50
2022/07/08 00:43:00;;;;;;;0.82;0.40;;;24.70;41.30;;;;;;5011427;28;20062;-49
2022/07/08 00:45:26;;;;;;;1.13;0.38;;;24.70;41.30;;;;;;5013030;28;20109;-52
2022/07/08 00:47:52;;;;;;;1.00;0.50;;;24.70;41.30;;;;;;5012624;28;20050;-48
2022/07/08 00:50:18;;;;;;;1.35;0.50;;;24.70;41.30;;;;;;5012774;28;20076;-51
2022/07/08 00:52:45;;;;;;;1.38;0.40;;;24.70;41.30;;;;;;5012830;28;20041;-50
2022/07/08 00:55:11;;;;;;;1.25;0.50;;;24.70;41.30;;;;;;5011698;28;20026;-47
2022/07/08 00:57:38;;;;;;;0.88;0.38;;;24.70;41.30;;;;;;5013580;28;20053;-50
2022/07/08 01:00:05;;;;;;;0.60;0.40;;;24.70;41.30;;;;;;5012511;28;20026;-51
2022/07/08 01:02:31;;;;;;;1.77;0.50;;;24.70;41.30;;;;;;5012258;28;22148;-48
2022/07/08 01:04:57;;;;;;;0.93;0.30;;;24.60;41.30;;;;;;5011825;28;20112;-44
2022/07/08 01:07:24;;;;;;;1.20;0.50;;;24.60;41.30;;;;;;5013036;28;20109;-48
2022/07/08 01:09:50;;;;;;;1.33;0.47;;;24.70;41.30;;;;;;5011265;28;20041;-46
2022/07/08 01:12:16;;;;;;;0.73;0.43;;;24.70;41.40;;;;;;5011428;28;20497;-50
2022/07/08 01:14:43;;;;;;;0.70;0.30;;;24.70;41.30;;;;;;5011444;28;20050;-47
2022/07/08 01:17:09;;;;;;;0.43;0.30;;;24.70;41.30;;;;;;5012429;28;20455;-44
2022/07/08 01:19:34;;;;;;;0.85;0.40;;;24.70;41.40;;;;;;5012463;28;20026;-50
2022/07/08 01:22:00;;;;;;;1.00;0.40;;;24.60;41.30;;;;;;5010556;28;20436;-50
2022/07/08 01:24:26;;;;;;;0.77;0.40;;;24.60;41.30;;;;;;5010681;28;20088;-53
2022/07/08 01:26:53;;;;;;;0.90;0.40;;;24.60;41.30;;;;;;5011978;28;20053;-52
2022/07/08 01:29:19;;;;;;;0.55;0.35;;;24.60;41.30;;;;;;5012124;28;20033;-49
2022/07/08 01:31:45;;;;;;;0.82;0.40;;;24.60;41.30;;;;;;5010425;28;20110;-52
2022/07/08 01:34:10;;;;;;;0.70;0.30;;;24.60;41.30;;;;;;5012472;28;20421;-50
2022/07/08 01:36:36;;;;;;;1.05;0.50;;;24.60;41.30;;;;;;5011116;28;21805;-53
2022/07/08 01:39:02;;;;;;;0.90;0.45;;;24.60;41.30;;;;;;5011031;28;20022;-50
2022/07/08 01:41:28;;;;;;;2.60;0.52;;;24.60;41.30;;;;;;5011589;28;20121;-46
2022/07/08 01:43:54;;;;;;;1.23;0.40;;;24.60;41.30;;;;;;5011985;28;20445;-50
2022/07/08 01:46:19;;;;;;;0.75;0.40;;;24.60;41.30;;;;;;5009928;28;20128;-48
2022/07/08 01:48:45;;;;;;;2.20;0.45;;;24.60;41.30;;;;;;5011473;28;20153;-49
2022/07/08 01:51:11;;;;;;;1.02;0.57;;;24.60;41.30;;;;;;5010661;28;20029;-47
2022/07/08 01:53:37;;;;;;;0.68;0.38;;;24.60;41.30;;;;;;5011261;28;20050;-46
2022/07/08 01:56:03;;;;;;;1.02;0.40;;;24.60;41.40;;;;;;5008395;28;20026;-46
2022/07/08 01:58:28;;;;;;;0.40;0.28;;;24.60;41.30;;;;;;5011609;28;20037;-52
2022/07/08 02:00:54;;;;;;;0.98;0.40;;;24.60;41.30;;;;;;5009817;28;20033;-48
2022/07/08 02:03:20;;;;;;;1.17;0.40;;;24.60;41.30;;;;;;5009831;28;20033;-50
2022/07/08 02:05:46;;;;;;;0.85;0.43;;;24.60;41.30;;;;;;5011151;28;20026;-50
2022/07/08 02:08:12;;;;;;;0.90;0.25;;;24.60;41.30;;;;;;5011794;28;20438;-50
2022/07/08 02:13:22;;;;;;;0.93;0.30;;;24.60;41.40;;;;;;5009362;28;20089;-47
2022/07/08 02:15:48;;;;;;;0.90;0.30;;;24.60;41.40;;;;;;5011022;28;20033;-50
2022/07/08 02:18:14;;;;;;;1.17;0.47;;;24.60;41.40;;;;;;5010436;28;20021;-48
2022/07/08 02:20:39;;;;;;;1.23;0.43;;;24.60;41.40;;;;;;5011871;28;20417;-46
2022/07/08 02:23:05;;;;;;;2.00;0.63;;;24.50;41.30;;;;;;5010609;28;20041;-50
2022/07/08 02:25:31;;;;;;;1.83;0.50;;;24.50;41.30;;;;;;5008936;28;20041;-50
2022/07/08 02:27:57;;;;;;;0.88;0.40;;;24.50;41.30;;;;;;5010542;28;20400;-52
2022/07/08 02:30:23;;;;;;;1.23;0.40;;;24.50;41.30;;;;;;5010952;28;20325;-47
2022/07/08 02:32:49;;;;;;;0.60;0.40;;;24.50;41.30;;;;;;5010693;28;20113;-46
2022/07/08 02:35:14;;;;;;;1.65;0.28;;;24.60;41.30;;;;;;4998543;28;20692;-46
2022/07/08 02:37:40;;;;;;;1.33;0.50;;;24.50;41.30;;;;;;5010441;28;20069;-46
2022/07/08 02:40:07;;;;;;;0.93;0.43;;;24.50;41.30;;;;;;5008227;28;20036;-49
2022/07/08 02:42:33;;;;;;;0.80;0.30;;;24.50;41.30;;;;;;5009919;28;20120;-51
2022/07/08 02:44:58;;;;;;;0.80;0.40;;;24.50;41.30;;;;;;5010544;28;20516;-51
2022/07/08 02:47:24;;;;;;;2.38;0.35;;;24.50;41.30;;;;;;5010843;28;20046;-51
2022/07/08 02:49:50;;;;;;;1.10;0.43;;;24.50;41.30;;;;;;5009710;28;20026;-47
2022/07/08 02:52:16;;;;;;;0.73;0.30;;;24.50;41.30;;;;;;5009961;28;20105;-45
2022/07/08 02:54:41;;;;;;;1.42;0.80;;;24.50;41.30;;;;;;5009493;28;20113;-44
2022/07/08 02:57:07;;;;;;;1.55;0.47;;;24.50;41.30;;;;;;5010570;28;20030;-52
2022/07/08 02:59:33;;;;;;;0.88;0.28;;;24.50;41.30;;;;;;5010596;28;20120;-49
2022/07/08 03:01:59;;;;;;;1.70;0.60;;;24.50;41.30;;;;;;5009536;28;20022;-47
2022/07/08 03:04:24;;;;;;;1.10;0.50;;;24.50;41.30;;;;;;5010856;28;20479;-47
2022/07/08 03:06:50;;;;;;;1.40;0.50;;;24.50;41.30;;;;;;5010931;28;20033;-48
2022/07/08 03:09:16;;;;;;;0.80;0.50;;;24.50;41.30;;;;;;5011026;28;20463;-48
2022/07/08 03:11:42;;;;;;;0.60;0.30;;;24.40;41.20;;;;;;5010099;28;20048;-50
2022/07/08 03:14:08;;;;;;;0.22;0.17;;;24.40;41.20;;;;;;5010261;28;20032;-45
2022/07/08 03:16:35;;;;;;;1.10;0.35;;;24.40;41.30;;;;;;5009971;28;20368;-47
2022/07/08 03:19:01;;;;;;;1.02;0.40;;;24.40;41.30;;;;;;5011042;28;20033;-50
2022/07/08 03:21:27;;;;;;;1.02;0.50;;;24.40;41.30;;;;;;5010630;28;20112;-53
2022/07/08 03:23:53;;;;;;;0.98;0.40;;;24.40;41.30;;;;;;5009322;28;20129;-50
2022/07/08 03:26:18;;;;;;;1.33;0.30;;;24.40;41.30;;;;;;5010253;28;20022;-48
2022/07/08 03:28:44;;;;;;;1.13;0.40;;;24.40;41.30;;;;;;5011000;28;20030;-49
2022/07/08 03:31:10;;;;;;;0.90;0.30;;;24.40;41.30;;;;;;5010114;28;20021;-46
2022/07/08 03:33:36;;;;;;;1.80;0.45;;;24.40;41.30;;;;;;5007894;28;20033;-50
2022/07/08 03:36:01;;;;;;;0.43;0.40;;;24.40;41.40;;;;;;5009497;28;20360;-52
2022/07/08 03:38:27;;;;;;;0.95;0.32;;;24.40;41.40;;;;;;5010505;28;20026;-48
2022/07/08 03:43:37;;;;;;;1.17;0.40;;;24.40;41.40;;;;;;5009461;28;20067;-49
2022/07/08 03:46:03;;;;;;;1.50;0.30;;;24.40;41.40;;;;;;5010396;28;20026;-46
2022/07/08 03:48:29;;;;;;;1.73;0.60;;;24.40;41.40;;;;;;5009963;28;20132;-47
2022/07/08 03:50:55;;;;;;;1.15;0.40;;;24.40;41.50;;;;;;5009803;28;20579;-52
2022/07/08 03:53:20;;;;;;;1.05;0.40;;;24.40;41.50;;;;;;5010349;28;20121;-48
2022/07/08 03:55:46;;;;;;;1.30;0.40;;;24.40;41.50;;;;;;5009104;28;20026;-50
2022/07/08 03:58:12;;;;;;;1.15;0.40;;;24.40;41.50;;;;;;5010468;28;20115;-49
2022/07/08 04:00:38;;;;;;;0.65;0.30;;;24.40;41.50;;;;;;5008153;28;20140;-49
2022/07/08 04:03:04;;;;;;;1.38;0.45;;;24.40;41.50;;;;;;5009602;28;20441;-46
2022/07/08 04:05:29;;;;;;;1.00;0.60;;;24.40;41.50;;;;;;5010163;28;20026;-46
2022/07/08 04:07:55;;;;;;;1.48;0.40;;;24.40;41.50;;;;;;5010286;28;20038;-49
2022/07/08 04:10:21;;;;;;;2.03;0.68;;;24.40;41.50;;;;;;5009483;28;20038;-52
2022/07/08 04:12:47;;;;;;;0.85;0.40;;;24.40;41.50;;;;;;5010359;28;20033;-46
2022/07/08 04:15:13;;;;;;;0.93;0.55;;;24.40;41.50;;;;;;5011994;28;20104;-44
2022/07/08 04:17:39;;;;;;;0.90;0.40;;;24.40;41.60;;;;;;5012976;28;20040;-52
2022/07/08 04:20:06;;;;;;;0.55;0.30;;;24.40;41.60;;;;;;5012001;28;20033;-48
2022/07/08 04:22:31;;;;;;;0.75;0.38;;;24.40;41.60;;;;;;5011839;28;20038;-44
2022/07/08 04:24:57;;;;;;;1.00;0.45;;;24.40;41.60;;;;;;5013536;28;20022;-49
2022/07/08 04:27:23;;;;;;;0.63;0.28;;;24.40;41.60;;;;;;5012525;28;20435;-45
2022/07/08 04:29:49;;;;;;;2.92;0.73;;;24.30;41.60;;;;;;5013116;28;20511;-49
2022/07/08 04:32:14;;;;;;;0.68;0.30;;;24.40;41.70;;;;;;5012282;28;20061;-48
2022/07/08 04:34:40;;;;;;;1.45;0.45;;;24.40;41.70;;;;;;5012113;28;20034;-52
2022/07/08 04:37:06;;;;;;;1.73;0.70;;;24.40;41.70;;;;;;5014056;28;20037;-48
2022/07/08 04:39:32;;;;;;;1.13;0.55;;;24.40;41.70;;;;;;5011962;28;20018;-48
2022/07/08 04:41:58;;;;;;;0.75;0.40;;;24.40;41.70;;;;;;5013312;28;20447;-51
2022/07/08 04:44:23;;;;;;;1.25;0.50;;;24.40;41.70;;;;;;5012316;28;20108;-50
2022/07/08 04:46:49;;;;;;;1.02;0.50;;;24.40;41.70;;;;;;5012293;28;20119;-51
2022/07/08 04:49:16;;;;;;;0.85;0.30;;;24.30;41.70;;;;;;5013222;28;20030;-49
2022/07/08 04:51:41;;;;;;;0.68;0.52;;;24.40;41.70;;;;;;5012344;28;20091;-48
2022/07/08 04:54:07;;;;;;;0.93;0.30;;;24.40;41.70;;;;;;5011645;28;20076;-50
2022/07/08 04:56:33;;;;;;;0.68;0.45;;;24.40;41.80;;;;;;5011913;28;20026;-51
2022/07/08 04:58:59;;;;;;;1.35;0.75;;;24.40;41.80;;;;;;5011045;28;20026;-51
2022/07/08 05:01:24;;;;;;;2.40;0.70;;;24.40;41.80;;;;;;5012629;28;20152;-48
2022/07/08 05:03:50;;;;;;;1.77;0.50;;;24.40;41.80;;;;;;5011992;28;20041;-50
2022/07/08 05:06:16;;;;;;;0.90;0.38;;;24.40;41.80;;;;;;5012538;28;20041;-51
2022/07/08 05:08:42;;;;;;;0.80;0.40;;;24.30;41.80;;;;;;5010770;28;20079;-48
2022/07/08 05:11:07;;;;;;;0.65;0.40;;;24.40;41.80;;;;;;5011800;28;20026;-47
2022/07/08 05:13:33;;;;;;;0.60;0.38;;;24.40;41.80;;;;;;5010766;28;20061;-50
2022/07/08 05:15:59;;;;;;;0.85;0.40;;;24.40;41.80;;;;;;5012408;28;20038;-48
2022/07/08 05:18:24;;;;;;;0.93;0.40;;;24.40;41.90;;;;;;5013054;28;20433;-51
2022/07/08 05:20:50;;;;;;;1.73;0.43;;;24.40;41.80;;;;;;5012218;28;20037;-45
2022/07/08 05:23:16;;;;;;;1.40;0.57;;;24.40;41.90;;;;;;5010261;28;20137;-52
2022/07/08 05:25:42;;;;;;;1.10;0.43;;;24.40;41.90;;;;;;5012014;28;20025;-47
2022/07/08 05:28:07;;;;;;;0.52;0.50;;;24.40;41.90;;;;;;5012352;28;20026;-47
2022/07/08 05:30:33;;;;;;;0.70;0.40;;;24.40;41.90;;;;;;5012507;28;21215;-50
2022/07/08 05:32:59;;;;;;;1.48;0.57;;;24.40;41.90;;;;;;5011274;28;20041;-48
2022/07/08 05:35:25;;;;;;;0.65;0.40;;;24.40;41.90;;;;;;5011712;28;20034;-49
2022/07/08 05:37:51;;;;;;;1.70;0.55;;;24.40;41.90;;;;;;5012513;28;20405;-46
2022/07/08 05:40:16;;;;;;;2.22;0.47;;;24.40;41.90;;;;;;5012016;28;20368;-49
2022/07/08 05:42:42;;;;;;;1.38;0.50;;;24.40;42.00;;;;;;5011413;28;21869;-51
2022/07/08 05:45:08;;;;;;;1.52;0.52;;;24.40;42.00;;;;;;5011875;28;20025;-46
2022/07/08 05:47:35;;;;;;;0.63;0.40;;;24.40;42.00;;;;;;5011489;28;20046;-50
2022/07/08 05:50:00;;;;;;;1.20;0.55;;;24.40;42.00;;;;;;5011237;28;20029;-48
2022/07/08 05:52:26;;;;;;;1.45;0.50;;;24.40;42.00;;;;;;5010414;28;20038;-49
2022/07/08 05:54:53;;;;;;;1.88;0.60;;;24.40;42.00;;;;;;5010719;28;20362;-50
2022/07/08 05:57:19;;;;;;;1.63;0.50;;;24.40;42.00;;;;;;5009798;28;20026;-47
2022/07/08 05:59:45;;;;;;;0.82;0.40;;;24.40;42.00;;;;;;5011813;28;20107;-46
2022/07/08 06:02:11;;;;;;;1.95;0.75;;;24.40;42.10;;;;;;5011785;28;20034;-47
2022/07/08 06:04:37;;;;;;;1.60;0.47;;;24.40;42.10;;;;;;5010348;28;20467;-48
2022/07/08 06:07:03;;;;;;;1.55;0.50;;;24.40;42.10;;;;;;5010778;28;20117;-49
2022/07/08 06:09:29;;;;;;;1.67;0.47;;;24.40;42.10;;;;;;5009583;28;20404;-50
2022/07/08 06:11:55;;;;;;;0.93;0.40;;;24.40;42.10;;;;;;5011361;28;20030;-50
2022/07/08 06:14:21;;;;;;;0.88;0.40;;;24.40;42.20;;;;;;5009867;28;20512;-50
2022/07/08 06:16:48;;;;;;;0.82;0.43;;;24.40;42.20;;;;;;5009856;28;20091;-52
2022/07/08 06:19:17;;;;;;;1.67;0.70;;;24.40;42.20;;;;;;5008612;28;20026;-49
2022/07/08 06:21:43;;;;;;;0.77;0.40;;;24.40;42.20;;;;;;5007118;28;20088;-53
2022/07/08 06:24:09;;;;;;;0.93;0.50;;;24.40;42.20;;;;;;5011075;28;20060;-52
2022/07/08 06:26:36;;;;;;;1.40;0.57;;;24.40;42.20;;;;;;5010945;28;20403;-47
2022/07/08 06:29:03;;;;;;;1.55;0.45;;;24.40;42.20;;;;;;5010540;28;20463;-48
2022/07/08 06:31:29;;;;;;;1.38;0.55;;;24.40;42.30;;;;;;5009246;28;20360;-48
2022/07/08 06:33:58;;;;;;;0.90;0.40;;;24.40;42.30;;;;;;5009566;28;20026;-50
2022/07/08 06:36:25;;;;;;;1.73;0.50;;;24.40;42.30;;;;;;5006781;28;20116;-54
2022/07/08 06:38:51;;;;;;;1.42;0.60;;;24.50;42.30;;;;;;5010346;28;20026;-49
2022/07/08 06:41:17;;;;;;;1.20;0.35;;;24.50;42.40;;;;;;5009437;28;20032;-47
2022/07/08 06:43:44;;;;;;;1.30;0.50;;;24.40;42.30;;;;;;5009090;28;20053;-51
2022/07/08 06:46:10;;;;;;;2.08;0.90;;;24.50;42.40;;;;;;5009034;28;20044;-51
2022/07/08 06:48:35;;;;;;;1.77;0.60;;;24.50;42.40;;;;;;5007636;28;20042;-51
2022/07/08 06:51:01;;;;;;;0.98;0.43;;;24.50;42.40;;;;;;5008002;28;20029;-45
2022/07/08 06:54:34;;;;;;;1.42;0.60;;;24.50;42.50;;;;;;5006964;28;20432;-49
2022/07/08 06:56:14;;;;;;;1.05;0.60;;;24.50;42.50;;;;;;5008236;28;20388;-51
2022/07/08 06:58:40;;;;;;;1.35;0.50;;;24.50;42.50;;;;;;5011200;28;20117;-48
2022/07/08 07:01:06;;;;;;;2.85;0.73;;;24.50;42.60;;;;;;5008545;28;20484;-49
2022/07/08 07:03:32;;;;;;;2.08;0.75;;;24.50;42.60;;;;;;5010227;28;20325;-50
2022/07/08 07:05:57;;;;;;;1.85;0.65;;;24.50;42.70;;;;;;5005260;28;20440;-52
2022/07/08 07:08:23;;;;;;;1.30;0.50;;;24.50;42.70;;;;;;5008737;28;20096;-51
2022/07/08 07:10:49;;;;;;;2.80;0.60;;;24.50;42.70;;;;;;5012698;28;20029;-47
2022/07/08 07:13:14;;;;;;;0.98;0.55;;;24.60;42.80;;;;;;5006974;28;20097;-51
2022/07/08 07:15:40;;;;;;;1.05;0.40;;;24.60;42.80;;;;;;5005756;28;20030;-53
2022/07/08 07:18:08;;;;;;;2.20;0.80;;;24.60;42.90;;;;;;5008697;28;20041;-51
2022/07/08 07:20:34;;;;;;;1.70;0.60;;;24.60;42.90;;;;;;5013636;28;20524;-47
2022/07/08 07:23:00;;;;;;;3.83;0.88;;;24.60;42.90;;;;;;5014864;28;20124;-50
2022/07/08 07:25:26;;;;;;;2.35;0.82;;;24.60;42.90;;;;;;5013416;28;20057;-45
2022/07/08 07:27:52;;;;;;;2.05;0.75;;;24.60;42.90;;;;;;5008649;28;20061;-46
2022/07/08 07:30:22;;;;;;;2.08;0.80;;;24.60;42.90;;;;;;5008664;28;20025;-47
2022/07/08 07:32:47;;;;;;;3.05;0.68;;;24.60;42.90;;;;;;5009794;28;20112;-48
2022/07/08 07:35:13;;;;;;;2.05;0.95;;;24.60;42.90;;;;;;5008967;28;20025;-48
2022/07/08 07:37:39;;;;;;;4.25;1.00;;;24.60;42.90;;;;;;5011400;28;20036;-49
2022/07/08 07:40:05;;;;;;;3.90;0.85;;;24.60;42.90;;;;;;5010089;28;20084;-48
2022/07/08 07:42:31;;;;;;;2.28;0.95;;;24.60;42.90;;;;;;5010619;28;20034;-46
2022/07/08 07:44:57;;;;;;;1.65;0.85;;;24.60;42.90;;;;;;5009209;28;20037;-49
2022/07/08 07:47:23;;;;;;;1.77;0.70;;;24.60;42.90;;;;;;5013020;28;20469;-51
2022/07/08 07:49:50;;;;;;;2.25;0.90;;;24.60;42.90;;;;;;5013600;28;20033;-47
2022/07/08 07:52:16;;;;;;;2.72;1.00;;;24.70;42.90;;;;;;5013344;28;20440;-51
2022/07/08 07:54:41;;;;;;;2.85;0.73;;;24.70;42.90;;;;;;5012612;28;20149;-48
2022/07/08 07:57:07;;;;;;;2.17;0.73;;;24.70;42.90;;;;;;5014725;28;20033;-50
2022/07/08 07:59:33;;;;;;;5.00;0.98;;;24.70;42.90;;;;;;5011596;28;20037;-50
2022/07/08 08:01:59;;;;;;;1.67;0.70;;;24.70;42.90;;;;;;5011081;28;20049;-53
2022/07/08 08:04:25;;;;;;;2.38;0.88;;;24.70;42.90;;;;;;5017371;28;20739;-50
2022/07/08 08:06:50;;;;;;;2.15;0.70;;;24.70;42.90;;;;;;5014466;28;20109;-50
2022/07/08 08:09:17;;;;;;;2.05;0.90;;;24.70;42.90;;;;;;5014833;28;20026;-48
2022/07/08 08:11:42;;;;;;;4.90;1.00;;;24.70;42.90;;;;;;5018114;28;20030;-48
2022/07/08 08:14:08;;;;;;;2.20;0.90;;;24.70;42.90;;;;;;5017384;28;20353;-51
2022/07/08 08:16:34;;;;;;;2.30;0.95;;;24.70;42.90;;;;;;5013696;28;20412;-50
2022/07/08 08:19:00;;;;;;;2.30;0.90;;;24.70;42.90;;;;;;5017826;28;20052;-49
2022/07/08 08:21:25;;;;;;;3.05;0.75;;;24.70;42.80;;;;;;5017054;28;20037;-49
2022/07/08 08:23:51;;;;;;;3.22;0.93;;;24.70;42.80;;;;;;5007661;28;20042;-49
2022/07/08 08:26:17;;;;;;;3.10;0.90;;;24.70;42.80;;;;;;5011422;28;20034;-51
2022/07/08 08:28:43;;;;;;;2.20;0.77;;;24.70;42.70;;;;;;5016101;28;20512;-51
2022/07/08 08:31:09;;;;;;;1.02;0.60;;;24.70;42.70;;;;;;5016808;28;20033;-48
2022/07/08 08:33:34;;;;;;;1.67;0.73;;;24.80;42.70;;;;;;5016917;28;20372;-54
2022/07/08 08:36:00;;;;;;;2.08;0.80;;;24.80;42.70;;;;;;5017387;28;20034;-46
2022/07/08 08:38:26;;;;;;;1.65;0.80;;;24.80;42.70;;;;;;5018177;28;20041;-48
2022/07/08 08:41:01;;;;;;;1.98;0.77;;;24.80;42.70;;;;;;5017430;28;20033;-46
2022/07/08 08:43:27;;;;;;;1.25;0.68;;;24.80;42.60;;;;;;5015414;28;20042;-52
2022/07/08 08:45:54;;;;;;;1.85;0.70;;;24.80;42.60;;;;;;5017011;28;20033;-50
2022/07/08 08:48:24;;;;;;;1.63;0.75;;;24.80;42.60;;;;;;5012457;28;20117;-49
2022/07/08 08:50:56;;;;;;;1.92;0.85;;;24.80;42.50;;;;;;4998098;28;20062;-51
2022/07/08 08:53:28;;;;;;;1.38;0.60;;;24.80;42.50;;;;;;5015153;28;20044;-50
2022/07/08 08:55:59;;;;;;;1.98;0.70;;;24.80;42.50;;;;;;5014520;28;20030;-49
2022/07/08 08:58:25;;;;;;;1.10;0.60;;;24.80;42.40;;;;;;5016066;28;20042;-47
2022/07/08 09:00:51;;;;;;;1.70;0.63;;;24.80;42.40;;;;;;5017554;28;20026;-48
2022/07/08 09:03:17;;;;;;;1.85;0.70;;;24.90;42.50;;;;;;5024550;28;20439;-46
2022/07/08 09:05:43;;;;;;;1.83;0.80;;;24.90;42.50;;;;;;5015271;28;20038;-50
2022/07/08 09:08:09;;;;;;;1.33;0.55;;;24.90;42.60;;;;;;5013111;28;20176;-53
2022/07/08 09:10:35;;;;;;;2.50;0.80;;;25.00;42.70;;;;;;5012523;28;20116;-53
2022/07/08 09:13:06;;;;;;;3.58;1.35;;;25.00;42.70;;;;;;5016610;28;20033;-53
2022/07/08 09:15:39;;;;;;;4.55;0.98;;;25.00;42.70;;;;;;5016056;28;20045;-47
2022/07/08 09:18:13;;;;;;;2.63;0.50;;;25.00;42.70;;;;;;5011432;28;20484;-50
2022/07/08 09:20:46;;;;;;;2.28;0.75;;;25.10;42.80;;;;;;5011256;28;20412;-47
2022/07/08 09:23:19;;;;;;;2.13;0.70;;;25.10;42.80;;;;;;5013178;28;20052;-45
2022/07/08 09:25:47;;;;;;;2.47;0.90;;;25.10;42.80;;;;;;5009379;28;20164;-47
2022/07/08 09:28:14;;;;;;;1.83;0.60;;;25.10;42.80;;;;;;5011002;28;20018;-48
2022/07/08 09:30:43;;;;;;;1.77;0.90;;;25.10;42.80;;;;;;5011549;28;20053;-44
2022/07/08 09:33:11;;;;;;;2.50;0.90;;;25.10;42.90;;;;;;5012311;28;20356;-49
2022/07/08 09:35:39;;;;;;;2.75;0.77;;;25.10;42.80;;;;;;5009377;28;20109;-45
2022/07/08 09:38:08;;;;;;;1.48;0.70;;;25.10;42.90;;;;;;5011376;28;20053;-44
2022/07/08 09:40:35;;;;;;;2.17;0.80;;;25.10;42.90;;;;;;5010748;28;20034;-50
2022/07/08 09:43:02;;;;;;;2.95;0.70;;;25.10;42.90;;;;;;5014740;28;20038;-49
2022/07/08 09:45:33;;;;;;;2.30;0.63;;;25.20;42.90;;;;;;5010732;28;20030;-50
2022/07/08 09:48:06;;;;;;;2.40;0.63;;;25.20;42.90;;;;;;5011080;28;20069;-50
2022/07/08 09:50:44;;;;;;;0.98;0.50;;;25.20;43.00;;;;;;5006947;28;20109;-52
2022/07/08 09:53:20;;;;;;;1.48;0.75;;;25.20;43.60;;;;;;5010235;28;20034;-44
2022/07/08 09:55:49;;;;;;;1.45;0.52;;;25.20;42.90;;;;;;5011337;28;20060;-52
2022/07/08 09:58:15;;;;;;;2.63;0.77;;;25.30;43.00;;;;;;5010398;28;20404;-46
2022/07/08 10:00:43;;;;;;;1.45;0.68;;;25.30;43.10;;;;;;5010069;28;20042;-48
2022/07/08 10:03:09;;;;;;;1.63;0.90;;;25.30;43.60;;;;;;5009828;28;20041;-49
2022/07/08 10:05:35;;;;;;;1.40;0.70;;;25.30;43.00;;;;;;5011422;28;20136;-50
2022/07/08 10:08:02;;;;;;;3.42;0.65;;;25.30;43.00;;;;;;5011459;28;20523;-53
2022/07/08 10:10:28;;;;;;;1.45;0.80;;;25.30;43.10;;;;;;5008869;28;20112;-46
2022/07/08 10:12:58;;;;;;;1.83;0.82;;;25.30;43.20;;;;;;5005940;28;20030;-53
2022/07/08 10:15:30;;;;;;;1.35;0.70;;;25.30;43.20;;;;;;5006050;28;20356;-53
2022/07/08 10:18:23;;;;;;;2.05;0.50;;;25.40;43.30;;;;;;5009118;28;20443;-52
2022/07/08 10:20:56;;;;;;;1.98;0.80;;;25.40;43.40;;;;;;5010572;28;20029;-55
2022/07/08 10:23:46;;;;;;;1.92;0.70;;;25.40;43.40;;;;;;5008120;28;20037;-51
2022/07/08 10:26:40;;;;;;;2.17;0.90;;;25.40;43.30;;;;;;5007700;28;20104;-47
2022/07/08 10:29:17;;;;;;;1.23;0.60;;;25.40;43.30;;;;;;5011587;28;20080;-49
2022/07/08 10:31:51;;;;;;;1.23;0.60;;;25.40;43.20;;;;;;5013295;28;20030;-55
2022/07/08 10:34:23;;;;;;;1.30;0.60;;;25.40;43.20;;;;;;5007115;28;20689;-49
2022/07/08 10:36:53;;;;;;;1.05;0.60;;;25.40;43.20;;;;;;5005520;28;20022;-52
2022/07/08 10:39:32;;;;;;;1.23;0.45;;;25.50;43.30;;;;;;5007848;28;20033;-48
2022/07/08 10:42:12;;;;;;;1.88;0.60;;;25.60;43.30;;;;;;5011342;28;20172;-51
2022/07/08 10:44:46;;;;;;;0.98;0.60;;;25.60;43.30;;;;;;5009487;28;20054;-50
2022/07/08 10:47:15;;;;;;;1.10;0.50;;;25.60;43.30;;;;;;5008873;28;20107;-52
2022/07/08 10:49:51;;;;;;;0.95;0.50;;;25.60;43.30;;;;;;5014858;28;20025;-49
2022/07/08 10:52:33;;;;;;;0.60;0.45;;;25.60;43.30;;;;;;5011469;28;20044;-52
2022/07/08 10:55:16;;;;;;;1.30;0.50;;;25.70;43.30;;;;;;5008207;28;20037;-49
2022/07/08 10:57:58;;;;;;;1.00;0.60;;;25.70;43.30;;;;;;5010164;28;20510;-54
2022/07/08 11:00:27;;;;;;;1.25;0.40;;;25.80;44.00;;;;;;5009633;28;20018;-52
2022/07/08 11:02:59;;;;;;;1.90;0.60;;;25.80;43.30;;;;;;5003548;28;20037;-52
2022/07/08 11:05:40;;;;;;;2.22;0.80;;;25.80;43.30;;;;;;5008182;28;20076;-57
2022/07/08 11:08:25;;;;;;;3.47;0.77;;;25.90;43.60;;;;;;5006865;28;20046;-52
2022/07/08 11:10:55;;;;;;;1.13;0.63;;;25.90;43.60;;;;;;4994182;28;20385;-54
2022/07/08 11:13:28;;;;;;;1.65;0.55;;;25.90;43.60;;;;;;5012383;28;20059;-52
2022/07/08 11:16:03;;;;;;;1.42;0.50;;;26.00;43.80;;;;;;5009030;28;20084;-54
2022/07/08 11:18:30;;;;;;;1.60;0.50;;;26.00;43.80;;;;;;5009308;28;20348;-58
2022/07/08 11:21:06;;;;;;;1.20;0.70;;;26.00;43.80;;;;;;5010781;28;20349;-54
2022/07/08 11:23:36;;;;;;;1.73;0.52;;;26.00;43.80;;;;;;5016920;28;20030;-53
2022/07/08 11:26:11;;;;;;;1.15;0.60;;;26.10;43.90;;;;;;5019462;28;20049;-53
2022/07/08 11:28:43;;;;;;;3.25;0.70;;;26.10;43.80;;;;;;5017913;28;20456;-57
2022/07/08 11:31:28;;;;;;;3.17;1.02;;;26.10;43.70;;;;;;5019283;28;20044;-55
2022/07/08 11:34:19;;;;;;;1.63;0.50;;;26.20;43.70;;;;;;5018312;28;20095;-51
2022/07/08 11:36:59;;;;;;;0.60;0.40;;;26.20;43.60;;;;;;5016244;28;20034;-53
2022/07/08 11:39:40;;;;;;;0.93;0.40;;;26.20;43.60;;;;;;5018331;28;20041;-51
2022/07/08 11:42:18;;;;;;;1.27;0.60;;;26.20;43.50;;;;;;5019039;28;20121;-52
2022/07/08 11:44:46;;;;;;;2.92;0.60;;;26.20;43.40;;;;;;5017971;28;20557;-47
2022/07/08 11:47:19;;;;;;;1.23;0.52;;;26.20;43.40;;;;;;5017029;28;20073;-53
2022/07/08 11:49:48;;;;;;;0.75;0.30;;;26.30;43.50;;;;;;5018101;28;20030;-51
2022/07/08 11:52:20;;;;;;;1.10;0.60;;;26.30;43.40;;;;;;5018652;28;20029;-49
2022/07/08 11:54:54;;;;;;;1.42;0.50;;;26.30;43.40;;;;;;5018697;28;20034;-54
2022/07/08 11:57:24;;;;;;;1.00;0.50;;;26.30;43.40;;;;;;5016511;28;20335;-47
2022/07/08 11:59:51;;;;;;;1.15;0.50;;;26.30;43.30;;;;;;5016735;28;20107;-53
2022/07/08 12:02:20;;;;;;;1.98;0.60;;;26.30;43.30;;;;;;5014322;28;20044;-50
2022/07/08 12:04:47;;;;;;;1.27;0.70;;;26.40;43.30;;;;;;5013224;28;20053;-48
2022/07/08 12:07:39;;;;;;;1.20;0.65;;;26.40;43.20;;;;;;5010737;28;20022;-51
2022/07/08 12:10:10;;;;;;;1.13;0.60;;;26.40;43.20;;;;;;5005263;28;20030;-57
2022/07/08 12:12:39;;;;;;;1.27;0.60;;;26.40;43.20;;;;;;5013602;28;20127;-56
2022/07/08 12:15:11;;;;;;;1.67;0.60;;;26.50;43.20;;;;;;5017342;28;20124;-57
2022/07/08 12:18:00;;;;;;;0.80;0.50;;;26.50;43.10;;;;;;5018561;28;20037;-51
2022/07/08 12:20:37;;;;;;;1.48;0.63;;;26.50;43.10;;;;;;5018078;28;20056;-55
2022/07/08 12:23:04;;;;;;;1.42;0.57;;;26.50;43.10;;;;;;5016318;28;20060;-57
2022/07/08 12:25:48;;;;;;;0.63;0.50;;;26.50;43.10;;;;;;5013078;28;20022;-50
2022/07/08 12:28:21;;;;;;;1.38;0.60;;;26.50;43.10;;;;;;5009816;28;20045;-51
2022/07/08 12:30:47;;;;;;;2.30;0.60;;;26.60;43.20;;;;;;5007418;28;20038;-49
2022/07/08 12:33:13;;;;;;;0.73;0.38;;;26.60;43.20;;;;;;5006971;28;20448;-48
2022/07/08 12:35:39;;;;;;;1.30;0.63;;;26.60;43.20;;;;;;5004937;28;20026;-55
2022/07/08 12:38:08;;;;;;;1.35;0.60;;;26.60;43.20;;;;;;5010017;28;20448;-52
2022/07/08 12:40:42;;;;;;;1.05;0.50;;;26.60;43.20;;;;;;5010744;28;20072;-49
2022/07/08 12:43:11;;;;;;;1.30;0.70;;;26.60;43.20;;;;;;5011706;28;20034;-51
2022/07/08 12:45:37;;;;;;;0.95;0.50;;;26.50;43.10;;;;;;5010642;28;20052;-49
2022/07/08 12:48:03;;;;;;;0.73;0.50;;;26.60;43.20;;;;;;5010917;28;20050;-50
2022/07/08 12:50:33;;;;;;;1.65;0.70;;;26.60;43.20;;;;;;5010402;28;20026;-52
2022/07/08 12:53:01;;;;;;;0.57;0.40;;;26.60;43.20;;;;;;5008822;28;20030;-51
2022/07/08 12:55:27;;;;;;;2.63;0.50;;;26.50;43.10;;;;;;5007295;28;20441;-47
2022/07/08 12:57:53;;;;;;;1.45;0.60;;;26.60;43.20;;;;;;5010731;28;20061;-49